Terminal Aerodrome Forecast
Issued by NWS Kansas City/Pleasant Hill, MO

Home | Current Version | Previous Version | Text Only | Print | Product List | Glossary On
Versions: 1 2 3 4 5 6 7 8 9 10 11 12 13 14 15 16 17 18 19 20 21 22 23 24
216
FTUS43 KEAX 191721
TAFMCI
TAF
KMCI 191721Z 1918/2018 16012KT P6SM FEW070 SCT250
     FM200300 19014KT P6SM FEW250 WS020/20045KT
     FM201500 22010KT P6SM SCT110=

USA.gov is the U.S. government's official web portal to all federal, state and local government web resources and services.